createdAt,value
2018-08-13T00:00:02.652Z,21.40
2018-08-13T00:02:31.525Z,21.40
2018-08-13T00:05:03.690Z,21.40
2018-08-13T00:07:32.612Z,21.50
2018-08-13T00:10:09.153Z,21.50
2018-08-13T00:12:37.948Z,21.50
2018-08-13T00:15:08.669Z,21.50
2018-08-13T00:17:37.814Z,21.50
2018-08-13T00:20:12.619Z,21.60
2018-08-13T00:22:41.784Z,21.50
2018-08-13T00:25:17.978Z,21.60
2018-08-13T00:27:46.732Z,21.60
2018-08-13T00:30:17.049Z,21.60
2018-08-13T00:32:45.878Z,21.60
2018-08-13T00:35:23.242Z,21.60
2018-08-13T00:37:52.022Z,21.60
2018-08-13T00:40:21.636Z,21.60
2018-08-13T00:42:50.585Z,21.60
2018-08-13T00:45:23.914Z,21.60
2018-08-13T00:47:52.720Z,21.60
2018-08-13T00:50:29.536Z,21.50
2018-08-13T00:52:58.753Z,21.50
2018-08-13T00:55:29.156Z,21.50
2018-08-13T00:57:58.511Z,21.50
2018-08-13T01:00:31.306Z,21.50
2018-08-13T01:03:00.526Z,21.40
2018-08-13T01:05:36.696Z,21.50
2018-08-13T01:08:06.141Z,21.50
2018-08-13T01:10:35.688Z,21.50
2018-08-13T01:13:04.511Z,21.50
2018-08-13T01:15:40.899Z,21.60
2018-08-13T01:18:09.681Z,21.60
2018-08-13T01:20:42.303Z,21.70
2018-08-13T01:23:12.675Z,21.70
2018-08-13T01:25:48.929Z,21.70
2018-08-13T01:28:17.961Z,21.80
2018-08-13T01:30:48.678Z,21.80
2018-08-13T01:33:18.035Z,21.90
2018-08-13T01:35:51.484Z,21.90
2018-08-13T01:38:20.571Z,22.00
2018-08-13T01:40:57.405Z,22.00
2018-08-13T01:43:26.654Z,22.00
2018-08-13T01:45:57.543Z,22.00
2018-08-13T01:48:26.598Z,22.00
2018-08-13T01:51:03.364Z,22.10
2018-08-13T01:53:32.744Z,22.10
2018-08-13T01:56:03.452Z,22.10
2018-08-13T01:58:33.324Z,22.20
2018-08-13T02:01:05.886Z,22.20
2018-08-13T02:03:34.893Z,22.30
2018-08-13T02:06:09.168Z,22.30
2018-08-13T02:08:38.124Z,22.40
2018-08-13T02:11:11.755Z,22.40
2018-08-13T02:13:40.858Z,22.50
2018-08-13T02:16:17.092Z,22.50
2018-08-13T02:18:46.745Z,22.50
2018-08-13T02:21:19.124Z,22.50
2018-08-13T02:23:47.888Z,22.50
2018-08-13T02:26:20.277Z,22.50
2018-08-13T02:28:49.379Z,22.40
2018-08-13T02:31:22.090Z,22.40
2018-08-13T02:33:51.158Z,22.40
2018-08-13T02:36:27.571Z,22.40
2018-08-13T02:38:56.357Z,22.30
2018-08-13T02:41:26.351Z,22.30
2018-08-13T02:43:55.973Z,22.20
2018-08-13T02:46:28.512Z,22.20
2018-08-13T02:48:57.778Z,22.10
2018-08-13T02:51:35.048Z,22.10
2018-08-13T02:54:05.176Z,22.10
2018-08-13T02:56:34.091Z,22.00
2018-08-13T02:59:03.289Z,22.00
2018-08-13T03:01:36.928Z,21.90
2018-08-13T03:04:06.896Z,21.80
2018-08-13T03:06:39.563Z,21.70
2018-08-13T03:09:11.864Z,21.50
2018-08-13T03:11:42.941Z,21.30
2018-08-13T03:14:11.829Z,21.20
2018-08-13T03:16:43.941Z,21.10
2018-08-13T03:19:13.155Z,21.00
2018-08-13T03:21:49.791Z,20.90
2018-08-13T03:24:18.572Z,20.80
2018-08-13T03:26:50.453Z,20.70
2018-08-13T03:29:19.256Z,20.50
2018-08-13T03:31:55.628Z,20.40
2018-08-13T03:34:24.898Z,20.30
2018-08-13T03:36:55.152Z,20.10
2018-08-13T03:39:24.176Z,20.00
2018-08-13T03:42:00.630Z,20.00
2018-08-13T03:44:29.453Z,19.90
2018-08-13T03:47:02.813Z,19.90
2018-08-13T03:49:32.116Z,19.90
2018-08-13T03:52:06.125Z,19.90
2018-08-13T03:54:34.960Z,19.80
2018-08-13T03:57:06.422Z,19.80
2018-08-13T03:59:36.219Z,19.70
2018-08-13T04:02:13.231Z,19.60
2018-08-13T04:04:43.344Z,19.60
2018-08-13T04:07:13.244Z,19.50
2018-08-13T04:09:44.271Z,19.50
2018-08-13T04:12:16.213Z,19.50
2018-08-13T04:14:45.471Z,19.50
2018-08-13T04:17:17.710Z,19.30
2018-08-13T04:19:48.056Z,19.30
2018-08-13T04:22:20.408Z,19.30
2018-08-13T04:24:49.579Z,19.20
2018-08-13T04:27:22.269Z,19.30
2018-08-13T04:29:51.383Z,19.30
2018-08-13T04:32:27.469Z,19.10
2018-08-13T04:34:56.585Z,19.10
2018-08-13T04:37:29.109Z,19.10
2018-08-13T04:39:58.655Z,19.10
2018-08-13T04:42:29.039Z,19.10
2018-08-13T04:44:57.822Z,19.10
2018-08-13T04:47:35.315Z,19.10
2018-08-13T04:50:05.188Z,19.20
2018-08-13T04:52:34.173Z,19.10
2018-08-13T04:55:04.166Z,19.20
2018-08-13T04:57:36.796Z,19.10
2018-08-13T05:00:06.830Z,19.10
2018-08-13T05:02:39.548Z,19.20
2018-08-13T05:05:10.405Z,19.10
2018-08-13T05:07:42.968Z,19.00
2018-08-13T05:10:12.202Z,18.90
2018-08-13T05:12:46.114Z,18.70
2018-08-13T05:15:15.062Z,18.50
2018-08-13T05:17:48.671Z,18.40
2018-08-13T05:20:18.796Z,18.40
2018-08-13T05:22:50.415Z,18.40
2018-08-13T05:25:21.033Z,18.40
2018-08-13T05:27:53.828Z,18.40
2018-08-13T05:33:06.102Z,18.40
2018-08-13T05:35:37.187Z,18.50
2018-08-13T05:38:08.165Z,18.50
2018-08-13T05:40:37.560Z,18.50
2018-08-13T05:43:07.200Z,18.50
2018-08-13T05:45:36.095Z,18.60
2018-08-13T05:48:05.107Z,18.50
2018-08-13T05:50:34.375Z,18.60
2018-08-13T05:55:26.728Z,18.60
2018-08-13T05:57:55.953Z,18.60
2018-08-13T06:00:25.808Z,18.60
2018-08-13T06:02:54.729Z,18.60
2018-08-13T06:05:23.654Z,18.70
2018-08-13T06:07:53.856Z,18.70
2018-08-13T06:10:22.910Z,18.70
2018-08-13T06:12:51.915Z,18.80
2018-08-13T06:15:21.764Z,18.80
2018-08-13T06:17:50.834Z,18.90
2018-08-13T06:20:24.157Z,19.00
2018-08-13T06:22:53.636Z,19.00
2018-08-13T06:25:25.596Z,19.10
2018-08-13T06:27:54.640Z,19.10
2018-08-13T06:30:27.481Z,19.10
2018-08-13T06:32:59.269Z,19.20
2018-08-13T06:35:30.149Z,19.10
2018-08-13T06:37:59.135Z,19.20
2018-08-13T06:40:32.153Z,19.20
2018-08-13T06:43:01.149Z,19.30
2018-08-13T06:45:37.642Z,19.30
2018-08-13T06:48:06.950Z,19.40
2018-08-13T06:50:40.859Z,19.50
2018-08-13T06:53:11.168Z,19.50
2018-08-13T06:55:40.276Z,19.40
2018-08-13T06:58:09.165Z,19.40
2018-08-13T07:00:41.855Z,19.40
2018-08-13T07:03:10.908Z,19.50
2018-08-13T07:05:47.443Z,19.50
2018-08-13T07:08:16.682Z,19.50
2018-08-13T07:10:47.529Z,19.50
2018-08-13T07:13:16.749Z,19.50
2018-08-13T07:15:53.286Z,19.50
2018-08-13T07:18:23.245Z,19.50
2018-08-13T07:20:54.312Z,19.50
2018-08-13T07:23:23.566Z,19.50
2018-08-13T07:25:57.076Z,19.50
2018-08-13T07:28:28.437Z,19.60
2018-08-13T07:31:00.440Z,19.60
2018-08-13T07:33:33.267Z,19.60
2018-08-13T07:36:06.606Z,19.60
2018-08-13T07:38:35.384Z,19.50
2018-08-13T07:41:05.584Z,19.60
2018-08-13T07:43:34.819Z,19.60
2018-08-13T07:46:11.165Z,19.70
2018-08-13T07:48:40.531Z,19.70
2018-08-13T07:51:12.780Z,19.80
2018-08-13T07:53:41.686Z,19.80
2018-08-13T07:56:14.955Z,19.80
2018-08-13T07:58:43.922Z,19.90
2018-08-13T08:01:16.960Z,20.00
2018-08-13T08:03:47.237Z,20.00
2018-08-13T08:06:20.233Z,19.90
2018-08-13T08:08:51.970Z,19.90
2018-08-13T08:11:26.493Z,20.00
2018-08-13T08:13:57.560Z,20.10
2018-08-13T08:16:26.660Z,20.30
2018-08-13T08:18:55.747Z,20.40
2018-08-13T08:21:28.559Z,20.40
2018-08-13T08:23:57.664Z,20.50
2018-08-13T08:26:28.977Z,20.60
2018-08-13T08:28:58.649Z,20.70
2018-08-13T08:31:35.176Z,20.80
2018-08-13T08:34:05.725Z,20.80
2018-08-13T08:36:34.850Z,20.80
2018-08-13T08:39:07.300Z,20.90
2018-08-13T08:41:36.222Z,21.00
2018-08-13T08:44:05.564Z,21.10
2018-08-13T08:46:38.198Z,21.10
2018-08-13T08:49:07.313Z,21.20
2018-08-13T08:51:43.774Z,21.20
2018-08-13T08:54:12.650Z,21.30
2018-08-13T08:56:46.081Z,21.30
2018-08-13T08:59:15.184Z,21.40
2018-08-13T09:01:46.383Z,21.50
2018-08-13T09:04:15.697Z,21.70
2018-08-13T09:06:52.517Z,22.00
2018-08-13T09:09:21.500Z,22.10
2018-08-13T09:11:53.548Z,22.30
2018-08-13T09:14:23.179Z,22.60
2018-08-13T09:16:59.924Z,22.90
2018-08-13T09:19:40.315Z,23.10
2018-08-13T09:22:21.262Z,23.10
2018-08-13T09:25:04.936Z,23.20
2018-08-13T09:27:45.204Z,23.30
2018-08-13T09:30:25.042Z,23.30
2018-08-13T09:33:09.017Z,23.20
2018-08-13T09:35:38.416Z,23.30
2018-08-13T09:38:08.547Z,23.00
2018-08-13T09:40:37.624Z,22.90
2018-08-13T09:43:14.189Z,23.20
2018-08-13T09:45:43.623Z,23.40
2018-08-13T09:48:14.351Z,23.50
2018-08-13T09:50:43.477Z,23.80
2018-08-13T09:53:16.525Z,24.20
2018-08-13T09:55:47.435Z,24.30
2018-08-13T09:58:20.155Z,24.70
2018-08-13T10:00:54.977Z,24.70
2018-08-13T10:05:59.091Z,24.60
2018-08-13T10:08:28.380Z,24.50
2018-08-13T10:10:57.717Z,24.50
2018-08-13T10:13:27.652Z,24.60
2018-08-13T10:15:57.606Z,24.80
2018-08-13T10:18:28.278Z,25.30
2018-08-13T10:20:58.130Z,25.50
2018-08-13T10:23:31.298Z,25.80
2018-08-13T10:26:00.167Z,25.80
2018-08-13T10:28:33.281Z,25.80
2018-08-13T10:31:03.014Z,25.70
2018-08-13T10:33:35.914Z,25.60
2018-08-13T10:36:05.232Z,25.30
2018-08-13T10:38:41.459Z,24.90
2018-08-13T10:41:24.177Z,24.50
2018-08-13T10:43:54.049Z,23.90
2018-08-13T10:46:23.213Z,23.70
2018-08-13T10:48:52.672Z,23.60
2018-08-13T10:51:21.816Z,23.30
2018-08-13T10:53:52.421Z,23.00
2018-08-13T10:56:21.561Z,22.70
2018-08-13T10:58:50.411Z,22.50
2018-08-13T11:01:20.243Z,22.20
2018-08-13T11:03:53.506Z,21.90
2018-08-13T11:06:23.561Z,21.50
2018-08-13T11:08:56.192Z,21.00
2018-08-13T11:11:25.940Z,20.80
2018-08-13T11:14:00.677Z,20.70
2018-08-13T11:16:30.673Z,20.50
2018-08-13T11:19:01.093Z,20.20
2018-08-13T11:21:31.167Z,20.10
2018-08-13T11:24:07.175Z,20.10
2018-08-13T11:29:31.625Z,20.10
2018-08-13T11:32:06.427Z,20.40
2018-08-13T11:34:35.297Z,20.80
2018-08-13T11:37:12.793Z,21.40
2018-08-13T11:39:42.213Z,21.70
2018-08-13T11:42:15.225Z,22.10
2018-08-13T11:44:44.154Z,22.00
2018-08-13T11:47:20.509Z,21.60
2018-08-13T11:49:49.728Z,21.40
2018-08-13T11:52:21.187Z,21.10
2018-08-13T11:54:50.165Z,21.10
2018-08-13T11:57:23.476Z,21.00
2018-08-13T11:59:53.388Z,21.00
2018-08-13T12:02:24.621Z,21.00
2018-08-13T12:04:54.178Z,20.90
2018-08-13T12:07:27.163Z,20.80
2018-08-13T12:09:55.952Z,20.70
2018-08-13T12:12:29.126Z,20.60
2018-08-13T12:15:00.179Z,20.60
2018-08-13T12:17:37.519Z,21.10
2018-08-13T12:20:11.061Z,21.60
2018-08-13T12:22:40.186Z,22.20
2018-08-13T12:25:16.689Z,22.50
2018-08-13T12:27:46.197Z,22.90
2018-08-13T12:30:19.343Z,23.20
2018-08-13T12:32:49.703Z,23.10
2018-08-13T12:35:20.854Z,23.50
2018-08-13T12:37:50.181Z,23.60
2018-08-13T12:40:20.705Z,23.70
2018-08-13T12:42:49.647Z,24.00
2018-08-13T12:45:19.960Z,24.30
2018-08-13T12:47:53.714Z,24.70
2018-08-13T12:50:24.169Z,24.50
2018-08-13T12:52:53.583Z,24.70
2018-08-13T12:55:23.483Z,24.90
2018-08-13T12:57:52.703Z,25.00
2018-08-13T13:00:21.673Z,25.20
2018-08-13T13:02:54.909Z,25.10
2018-08-13T13:05:24.840Z,24.50
2018-08-13T13:07:57.796Z,24.40
2018-08-13T13:10:27.182Z,24.50
2018-08-13T13:13:00.674Z,24.30
2018-08-13T13:15:30.284Z,24.30
2018-08-13T13:18:12.498Z,24.60
2018-08-13T13:20:41.696Z,24.90
2018-08-13T13:23:11.761Z,24.70
2018-08-13T13:25:48.810Z,24.60
2018-08-13T13:28:18.701Z,24.20
2018-08-13T13:30:47.699Z,23.60
2018-08-13T13:33:16.681Z,23.30
2018-08-13T13:35:46.080Z,22.90
2018-08-13T13:38:18.709Z,22.80
2018-08-13T13:40:47.655Z,22.60
2018-08-13T13:43:18.485Z,22.50
2018-08-13T13:45:47.453Z,22.50
2018-08-13T13:48:29.448Z,22.50
2018-08-13T13:50:59.493Z,22.10
2018-08-13T13:53:28.580Z,22.00
2018-08-13T13:55:57.728Z,21.90
2018-08-13T13:58:28.526Z,22.00
2018-08-13T14:00:59.003Z,22.00
2018-08-13T14:03:28.653Z,22.20
2018-08-13T14:05:57.807Z,22.30
2018-08-13T14:08:31.369Z,22.50
2018-08-13T14:11:01.715Z,23.00
2018-08-13T14:13:33.503Z,23.30
2018-08-13T14:16:02.756Z,23.30
2018-08-13T14:18:48.452Z,23.30
2018-08-13T14:21:17.789Z,23.60
2018-08-13T14:23:48.270Z,23.90
2018-08-13T14:26:18.579Z,24.10
2018-08-13T14:28:48.694Z,24.20
2018-08-13T14:31:17.639Z,24.00
2018-08-13T14:33:50.368Z,23.60
2018-08-13T14:36:20.650Z,23.30
2018-08-13T14:38:53.879Z,23.10
2018-08-13T14:41:22.831Z,22.80
2018-08-13T14:43:53.767Z,22.80
2018-08-13T14:46:32.318Z,22.50
2018-08-13T14:49:06.098Z,22.40
2018-08-13T14:51:38.790Z,22.30
2018-08-13T14:54:08.960Z,22.30
2018-08-13T14:56:41.817Z,22.20
2018-08-13T14:59:10.986Z,22.20
2018-08-13T15:01:40.874Z,22.00
2018-08-13T15:04:09.876Z,22.10
2018-08-13T15:06:39.177Z,22.10
2018-08-13T15:09:11.088Z,22.20
2018-08-13T15:11:41.189Z,22.20
2018-08-13T15:14:12.317Z,22.10
2018-08-13T15:16:41.497Z,22.20
2018-08-13T15:19:12.455Z,22.00
2018-08-13T15:21:42.102Z,22.00
2018-08-13T15:24:15.285Z,21.80
2018-08-13T15:26:48.660Z,21.70
2018-08-13T15:29:25.500Z,21.70
2018-08-13T15:31:57.289Z,21.70
2018-08-13T15:34:28.157Z,21.70
2018-08-13T15:36:57.569Z,21.70
2018-08-13T15:39:26.644Z,21.70
2018-08-13T15:41:55.745Z,21.80
2018-08-13T15:44:26.041Z,21.90
2018-08-13T15:46:56.215Z,22.00
2018-08-13T15:49:26.315Z,22.10
2018-08-13T15:51:55.667Z,22.20
2018-08-13T15:54:28.545Z,22.30
2018-08-13T15:57:00.148Z,22.30
2018-08-13T15:59:31.651Z,22.30
2018-08-13T16:02:00.683Z,22.30
2018-08-13T16:04:34.105Z,22.40
2018-08-13T16:07:06.649Z,22.50
2018-08-13T16:09:36.535Z,22.60
2018-08-13T16:12:06.292Z,22.80
2018-08-13T16:14:36.669Z,22.90
2018-08-13T16:17:07.274Z,22.90
2018-08-13T16:19:44.358Z,23.00
2018-08-13T16:22:13.521Z,22.90
2018-08-13T16:24:43.096Z,22.90
2018-08-13T16:27:12.277Z,22.90
2018-08-13T16:29:50.709Z,22.90
2018-08-13T16:32:20.704Z,22.90
2018-08-13T16:34:52.774Z,22.90
2018-08-13T16:37:22.135Z,22.80
2018-08-13T16:39:51.158Z,22.60
2018-08-13T16:42:20.231Z,22.60
2018-08-13T16:44:53.876Z,22.40
2018-08-13T16:47:23.392Z,22.40
2018-08-13T16:49:55.396Z,22.40
2018-08-13T16:52:24.456Z,22.30
2018-08-13T16:55:02.622Z,22.30
2018-08-13T16:57:31.534Z,22.30
2018-08-13T17:00:01.651Z,22.20
2018-08-13T17:02:33.321Z,22.10
2018-08-13T17:05:08.048Z,22.10
2018-08-13T17:07:41.156Z,21.90
2018-08-13T17:10:15.009Z,21.70
2018-08-13T17:12:44.313Z,21.70
2018-08-13T17:15:15.324Z,21.60
2018-08-13T17:17:45.266Z,21.60
2018-08-13T17:20:19.023Z,21.60
2018-08-13T17:22:49.513Z,21.60
2018-08-13T17:25:22.389Z,21.50
2018-08-13T17:27:54.009Z,21.50
2018-08-13T17:30:29.266Z,21.50
2018-08-13T17:33:00.564Z,21.50
2018-08-13T17:35:31.630Z,21.50
2018-08-13T17:38:02.209Z,21.50
2018-08-13T17:40:33.211Z,21.50
2018-08-13T17:43:04.410Z,21.50
2018-08-13T17:45:37.229Z,21.50
2018-08-13T17:48:11.514Z,21.40
2018-08-13T17:50:40.497Z,21.40
2018-08-13T17:53:12.665Z,21.40
2018-08-13T17:55:42.511Z,21.50
2018-08-13T17:58:12.695Z,21.40
2018-08-13T18:00:44.264Z,21.30
2018-08-13T18:03:15.707Z,21.30
2018-08-13T18:05:47.251Z,21.30
2018-08-13T18:08:18.217Z,21.20
2018-08-13T18:10:50.209Z,21.00
2018-08-13T18:13:21.736Z,21.00
2018-08-13T18:15:51.659Z,21.00
2018-08-13T18:18:25.664Z,21.00
2018-08-13T18:20:55.716Z,20.90
2018-08-13T18:23:25.087Z,20.90
2018-08-13T18:25:54.436Z,20.90
2018-08-13T18:28:23.753Z,20.90
2018-08-13T18:30:53.621Z,20.90
2018-08-13T18:33:22.666Z,20.90
2018-08-13T18:35:52.535Z,20.90
2018-08-13T18:38:23.187Z,20.80
2018-08-13T18:40:57.200Z,20.80
2018-08-13T18:43:26.688Z,20.70
2018-08-13T18:45:59.322Z,20.60
2018-08-13T18:48:28.663Z,20.60
2018-08-13T18:51:02.749Z,20.60
2018-08-13T18:53:33.425Z,20.50
2018-08-13T18:56:06.672Z,20.40
2018-08-13T18:58:40.213Z,20.40
2018-08-13T19:01:09.665Z,20.30
2018-08-13T19:03:39.564Z,20.30
2018-08-13T19:06:12.803Z,20.30
2018-08-13T19:08:42.211Z,20.20
2018-08-13T19:11:14.334Z,20.20
2018-08-13T19:13:44.251Z,20.20
2018-08-13T19:16:18.310Z,20.10
2018-08-13T19:18:48.112Z,20.00
2018-08-13T19:21:19.366Z,20.00
2018-08-13T19:23:48.269Z,20.00
2018-08-13T19:26:21.659Z,20.00
2018-08-13T19:28:52.174Z,20.00
2018-08-13T19:31:26.178Z,19.90
2018-08-13T19:33:55.989Z,19.90
2018-08-13T19:36:30.327Z,19.80
2018-08-13T19:39:01.527Z,19.80
2018-08-13T19:41:34.474Z,19.80
2018-08-13T19:44:07.315Z,19.70
2018-08-13T19:46:38.680Z,19.60
2018-08-13T19:49:07.662Z,19.40
2018-08-13T19:51:40.504Z,19.40
2018-08-13T19:54:12.221Z,19.40
2018-08-13T19:56:43.367Z,19.40
2018-08-13T19:59:14.752Z,19.40
2018-08-13T20:01:45.254Z,19.30
2018-08-13T20:04:15.598Z,19.10
2018-08-13T20:06:46.289Z,19.00
2018-08-13T20:09:17.716Z,19.00
2018-08-13T20:11:53.738Z,19.10
2018-08-13T20:14:25.762Z,19.10
2018-08-13T20:16:56.696Z,19.10
2018-08-13T20:19:30.722Z,19.00
2018-08-13T20:22:03.596Z,19.00
2018-08-13T20:24:33.625Z,19.10
2018-08-13T20:27:04.470Z,19.10
2018-08-13T20:29:36.817Z,19.10
2018-08-13T20:32:07.703Z,19.00
2018-08-13T20:34:37.217Z,19.00
2018-08-13T20:37:08.643Z,19.00
2018-08-13T20:39:39.876Z,18.90
2018-08-13T20:42:13.857Z,19.00
2018-08-13T20:44:44.257Z,19.00
2018-08-13T20:47:24.425Z,19.00
2018-08-13T20:49:54.732Z,19.00
2018-08-13T20:52:30.315Z,19.00
2018-08-13T20:55:04.837Z,19.00
2018-08-13T20:57:37.096Z,19.00
2018-08-13T21:00:15.170Z,18.90
2018-08-13T21:02:47.096Z,18.90
2018-08-13T21:05:17.678Z,18.90
2018-08-13T21:07:50.656Z,18.90
2018-08-13T21:10:26.173Z,18.90
2018-08-13T21:12:58.369Z,19.00
2018-08-13T21:15:29.242Z,18.90
2018-08-13T21:18:01.568Z,18.90
2018-08-13T21:20:32.094Z,18.90
2018-08-13T21:25:44.260Z,19.00
2018-08-13T21:28:14.252Z,19.00
2018-08-13T21:30:46.274Z,19.00
2018-08-13T21:33:25.608Z,18.90
2018-08-13T21:36:02.537Z,18.90
2018-08-13T21:38:31.582Z,19.00
2018-08-13T21:41:00.711Z,18.90
2018-08-13T21:43:32.680Z,18.90
2018-08-13T21:46:01.746Z,19.00
2018-08-13T21:48:37.140Z,19.00
2018-08-13T21:51:06.186Z,19.00
2018-08-13T21:53:38.122Z,19.00
2018-08-13T21:56:08.126Z,19.00
2018-08-13T21:58:41.758Z,19.10
2018-08-13T22:01:17.193Z,19.10
2018-08-13T22:03:47.096Z,19.10
2018-08-13T22:06:16.724Z,19.00
2018-08-13T22:08:46.230Z,19.00
2018-08-13T22:11:15.690Z,19.10
2018-08-13T22:13:47.851Z,19.10
2018-08-13T22:16:16.700Z,19.10
2018-08-13T22:18:50.302Z,19.20
2018-08-13T22:21:21.196Z,19.10
2018-08-13T22:24:04.480Z,19.10
2018-08-13T22:26:33.689Z,19.10
2018-08-13T22:29:03.673Z,19.00
2018-08-13T22:31:32.831Z,19.10
2018-08-13T22:34:03.172Z,19.10
2018-08-13T22:36:32.163Z,19.20
2018-08-13T22:39:02.201Z,19.20
2018-08-13T22:41:31.294Z,19.10
2018-08-13T22:44:09.559Z,19.00
2018-08-13T22:46:39.178Z,19.00
2018-08-13T22:49:08.117Z,19.10
2018-08-13T22:51:37.205Z,19.00
2018-08-13T22:54:13.936Z,19.00
2018-08-13T22:56:42.725Z,19.10
2018-08-13T22:59:15.641Z,19.10
2018-08-13T23:01:46.162Z,19.20
2018-08-13T23:04:17.666Z,19.20
2018-08-13T23:06:46.516Z,19.20
2018-08-13T23:09:18.960Z,19.10
2018-08-13T23:11:48.185Z,19.10
2018-08-13T23:14:22.644Z,19.10
2018-08-13T23:16:53.967Z,19.10
2018-08-13T23:19:23.271Z,19.10
2018-08-13T23:21:52.140Z,19.10
2018-08-13T23:24:27.968Z,19.00
2018-08-13T23:26:57.792Z,19.00
2018-08-13T23:29:28.415Z,19.00
2018-08-13T23:31:57.858Z,19.10
2018-08-13T23:34:30.353Z,19.10
2018-08-13T23:36:59.169Z,19.20
2018-08-13T23:39:35.381Z,19.10
2018-08-13T23:42:05.939Z,19.10
2018-08-13T23:44:35.078Z,19.10
2018-08-13T23:47:04.200Z,19.10
2018-08-13T23:49:40.402Z,19.10
2018-08-13T23:52:10.305Z,19.00
2018-08-13T23:54:39.933Z,19.00
2018-08-13T23:57:09.749Z,18.90
2018-08-13T23:59:46.225Z,18.90
